Time;durP1;ratioP1;P1;durP2;ratioP2;P2;SDS_P1;SDS_P2;PMS_P1;PMS_P2;Temp;Humidity;BMP_temperature;BMP_pressure;BME280_temperature;BME280_humidity;BME280_pressure;Samples;Min_cycle;Max_cycle;Signal;HPM_P1;HPM_P2
2022/12/28 00:01:24;;;;;;;14.60;4.80;;;5.40;99.90;;;;;;5095676;27;20100;-44
2022/12/28 00:03:51;;;;;;;17.33;5.10;;;5.50;99.90;;;;;;5095817;27;20042;-50
2022/12/28 00:06:19;;;;;;;14.02;4.85;;;5.40;99.90;;;;;;5096060;28;20122;-49
2022/12/28 00:08:45;;;;;;;10.40;4.50;;;5.30;99.90;;;;;;5094748;27;20128;-50
2022/12/28 00:11:13;;;;;;;11.20;4.38;;;5.40;99.90;;;;;;5098632;27;20044;-48
2022/12/28 00:13:40;;;;;;;10.57;4.18;;;;;;;;;;5098055;28;20503;-49
2022/12/28 00:16:08;;;;;;;16.17;4.30;;;5.40;99.90;;;;;;5098636;27;20758;-47
2022/12/28 00:18:34;;;;;;;12.10;4.53;;;;;;;;;;5095908;27;20138;-44
2022/12/28 00:21:01;;;;;;;13.65;4.75;;;5.40;99.90;;;;;;5099051;27;20035;-48
2022/12/28 00:23:28;;;;;;;14.15;4.63;;;5.30;99.90;;;;;;5098073;28;20149;-51
2022/12/28 00:25:54;;;;;;;10.52;5.10;;;;;;;;;;5095809;27;20119;-45
2022/12/28 00:28:20;;;;;;;13.30;5.20;;;;;;;;;;5097272;28;20400;-44
2022/12/28 00:30:46;;;;;;;13.35;5.28;;;;;;;;;;5096361;27;20256;-45
2022/12/28 00:33:12;;;;;;;11.32;5.07;;;;;;;;;;5098570;27;20035;-46
2022/12/28 00:35:38;;;;;;;10.82;4.90;;;;;;;;;;5096021;28;20055;-47
2022/12/28 00:38:05;;;;;;;14.00;6.20;;;;;;;;;;5096505;28;20504;-48
2022/12/28 00:40:30;;;;;;;15.15;6.00;;;5.40;99.90;;;;;;5095573;27;20112;-50
2022/12/28 00:42:56;;;;;;;13.07;5.65;;;;;;;;;;5096565;27;20527;-48
2022/12/28 00:45:23;;;;;;;12.07;5.90;;;;;;;;;;5095056;27;20499;-44
2022/12/28 00:47:49;;;;;;;13.00;5.60;;;;;;;;;;5096157;28;21148;-45
2022/12/28 00:50:15;;;;;;;10.77;5.65;;;;;;;;;;5094765;28;20131;-46
2022/12/28 00:52:41;;;;;;;12.88;5.72;;;;;;;;;;5095136;27;20708;-45
2022/12/28 00:55:07;;;;;;;15.63;5.63;;;5.60;99.90;;;;;;5095518;27;20399;-48
2022/12/28 00:57:36;;;;;;;9.85;5.65;;;;;;;;;;5096144;27;20047;-44
2022/12/28 01:00:02;;;;;;;10.32;4.40;;;;;;;;;;5095528;27;20050;-44
2022/12/28 01:02:28;;;;;;;11.43;5.03;;;;;;;;;;5092260;27;20385;-47
2022/12/28 01:04:54;;;;;;;12.18;5.22;;;;;;;;;;5094707;27;20060;-48
2022/12/28 01:07:20;;;;;;;13.15;6.15;;;;;;;;;;5095662;28;20047;-45
2022/12/28 01:09:46;;;;;;;15.27;5.68;;;;;;;;;;5096065;27;20119;-47
2022/12/28 01:12:12;;;;;;;16.17;5.18;;;5.70;99.90;;;;;;5095783;27;20048;-44
2022/12/28 01:14:38;;;;;;;10.20;4.40;;;;;;;;;;5095112;27;20159;-44
2022/12/28 01:17:04;;;;;;;12.70;5.00;;;;;;;;;;5094671;28;20047;-45
2022/12/28 01:19:30;;;;;;;13.45;5.53;;;;;;;;;;5094534;27;20050;-46
2022/12/28 01:21:56;;;;;;;10.05;5.60;;;;;;;;;;5095139;28;20049;-47
2022/12/28 01:24:22;;;;;;;10.35;5.18;;;;;;;;;;5095670;27;20081;-44
2022/12/28 01:26:49;;;;;;;13.52;6.05;;;;;;;;;;5094834;27;20043;-49
2022/12/28 01:29:15;;;;;;;11.82;5.35;;;;;;;;;;5094655;28;20666;-47
2022/12/28 01:31:41;;;;;;;14.52;5.07;;;;;;;;;;5094488;27;20400;-45
2022/12/28 01:34:07;;;;;;;14.90;5.65;;;;;;;;;;5095671;27;20385;-44
2022/12/28 01:36:36;;;;;;;9.60;5.00;;;;;;;;;;5095156;27;20070;-45
2022/12/28 01:39:04;;;;;;;10.80;4.90;;;5.70;99.90;;;;;;5095221;27;20446;-48
2022/12/28 01:41:31;;;;;;;11.00;5.63;;;5.80;99.90;;;;;;5095183;27;20097;-46
2022/12/28 01:43:58;;;;;;;13.10;5.57;;;;;;;;;;5096934;27;20314;-47
2022/12/28 01:46:46;;;;;;;14.38;5.75;;;5.80;99.90;;;;;;5097041;27;20035;-44
2022/12/28 01:49:17;;;;;;;10.50;5.72;;;5.70;99.90;;;;;;5097422;27;20047;-47
2022/12/28 01:51:52;;;;;;;12.43;6.20;;;5.80;99.90;;;;;;5096624;27;20063;-45
2022/12/28 01:54:20;;;;;;;12.82;5.55;;;5.70;99.90;;;;;;5096683;27;20050;-45
2022/12/28 01:56:47;;;;;;;12.02;5.57;;;5.80;99.90;;;;;;5096235;27;20043;-44
2022/12/28 01:59:13;;;;;;;9.77;4.22;;;;;;;;;;5096377;27;20035;-46
2022/12/28 02:01:39;;;;;;;10.13;5.32;;;5.90;99.90;;;;;;5095018;27;20445;-47
2022/12/28 02:04:05;;;;;;;12.43;6.13;;;5.80;99.90;;;;;;5096438;27;20112;-50
2022/12/28 02:06:31;;;;;;;11.77;6.45;;;;;;;;;;5096324;27;20434;-48
2022/12/28 02:09:08;;;;;;;14.27;7.35;;;5.80;99.90;;;;;;5095087;27;20527;-45
2022/12/28 02:11:34;;;;;;;10.65;5.65;;;;;;;;;;5093984;27;20119;-46
2022/12/28 02:14:01;;;;;;;16.83;7.63;;;5.90;99.90;;;;;;5094805;28;20366;-46
2022/12/28 02:16:27;;;;;;;9.45;5.07;;;;;;;;;;5093953;27;20466;-50
2022/12/28 02:18:54;;;;;;;14.93;7.00;;;5.80;99.90;;;;;;5093133;28;20040;-45
2022/12/28 02:21:20;;;;;;;16.73;6.97;;;;;;;;;;5094296;27;20507;-47
2022/12/28 02:24:31;;;;;;;15.15;7.50;;;5.70;99.90;;;;;;5094462;27;20044;-49
2022/12/28 02:27:27;;;;;;;11.48;6.57;;;5.00;99.90;;;;;;5092150;27;20055;-46
2022/12/28 02:30:11;;;;;;;16.73;7.05;;;5.70;99.90;;;;;;5093018;27;20135;-46
2022/12/28 02:32:55;;;;;;;18.65;7.32;;;5.70;99.90;;;;;;5093821;27;20035;-47
2022/12/28 02:35:34;;;;;;;14.23;7.75;;;5.80;99.90;;;;;;5094631;27;20049;-47
2022/12/28 02:38:12;;;;;;;21.42;7.82;;;5.90;99.90;;;;;;5093840;27;20308;-49
2022/12/28 02:40:42;;;;;;;12.43;7.55;;;5.60;99.90;;;;;;5094428;27;20043;-48
2022/12/28 02:43:08;;;;;;;15.32;8.00;;;;;;;;;;5094154;27;20149;-46
2022/12/28 02:51:55;;;;;;;14.10;7.00;;;5.80;99.90;;;;;;5093093;27;20152;-45
2022/12/28 02:57:59;;;;;;;16.45;8.88;;;5.90;99.90;;;;;;5095274;27;20771;-44
2022/12/28 03:00:37;;;;;;;12.52;6.93;;;6.10;99.90;;;;;;5093316;27;20039;-46
2022/12/28 03:03:27;;;;;;;17.40;8.13;;;6.10;99.90;;;;;;5095441;27;20118;-50
2022/12/28 03:09:10;;;;;;;12.23;8.13;;;6.10;99.90;;;;;;5094781;27;20050;-45
2022/12/28 03:11:49;;;;;;;14.02;8.23;;;6.10;99.90;;;;;;5095018;28;20076;-46
2022/12/28 03:14:23;;;;;;;11.80;7.07;;;6.00;99.90;;;;;;5094399;27;20032;-47
2022/12/28 03:31:08;;;;;;;15.35;9.75;;;6.10;99.90;;;;;;5092648;28;20071;-45
2022/12/28 03:33:38;;;;;;;11.35;7.85;;;6.30;99.90;;;;;;5091972;28;20040;-49
2022/12/28 03:36:20;;;;;;;11.98;8.38;;;6.20;99.90;;;;;;5092737;28;20047;-45
2022/12/28 03:38:57;;;;;;;17.02;10.23;;;6.20;99.90;;;;;;5092346;28;20046;-45
2022/12/28 03:41:30;;;;;;;12.70;9.57;;;6.10;99.90;;;;;;5090679;28;20043;-46
2022/12/28 03:44:04;;;;;;;15.93;8.63;;;6.20;99.90;;;;;;5092888;27;20152;-45
2022/12/28 03:46:47;;;;;;;15.20;7.45;;;6.30;99.90;;;;;;5092842;28;20040;-45
2022/12/28 03:49:14;;;;;;;14.85;8.15;;;;;;;;;;5093000;28;20028;-50
2022/12/28 03:51:41;;;;;;;12.55;8.35;;;6.20;99.90;;;;;;5091613;28;20035;-46
2022/12/28 03:54:07;;;;;;;9.18;6.40;;;;;;;;;;5092786;28;20166;-44
2022/12/28 03:56:33;;;;;;;9.23;7.70;;;6.30;99.90;;;;;;5094286;28;20074;-45
2022/12/28 03:58:59;;;;;;;13.27;8.70;;;6.30;99.90;;;;;;5093328;28;20384;-45
2022/12/28 04:01:25;;;;;;;12.55;8.50;;;;;;;;;;5090613;28;20772;-44
2022/12/28 04:03:50;;;;;;;11.18;7.43;;;6.50;99.90;;;;;;5092229;28;20662;-47
2022/12/28 04:06:18;;;;;;;12.85;9.13;;;6.50;99.90;;;;;;5092833;27;20054;-48
2022/12/28 04:08:45;;;;;;;11.10;8.88;;;6.40;99.90;;;;;;5092120;28;20124;-48
2022/12/28 04:11:11;;;;;;;10.70;8.15;;;6.30;99.90;;;;;;5091999;28;20073;-45
2022/12/28 04:13:37;;;;;;;12.60;9.05;;;6.60;99.90;;;;;;5092763;28;20056;-47
2022/12/28 04:16:06;;;;;;;13.43;8.23;;;6.30;99.90;;;;;;5092530;28;20035;-45
2022/12/28 04:18:33;;;;;;;11.50;9.10;;;6.40;99.90;;;;;;5095647;28;20443;-45
2022/12/28 04:21:00;;;;;;;9.95;7.10;;;6.40;99.90;;;;;;5093678;28;20043;-49
2022/12/28 04:23:26;;;;;;;11.05;9.00;;;6.40;99.90;;;;;;5093451;28;20035;-50
2022/12/28 04:26:07;;;;;;;13.73;8.60;;;6.30;99.90;;;;;;5094160;28;20126;-48
2022/12/28 04:28:33;;;;;;;11.10;7.95;;;6.50;99.90;;;;;;5093476;28;20035;-45
2022/12/28 04:31:00;;;;;;;11.43;8.20;;;6.50;99.90;;;;;;5093197;28;20058;-47
2022/12/28 04:33:26;;;;;;;10.63;8.40;;;6.30;99.90;;;;;;5093943;28;20124;-46
2022/12/28 04:35:52;;;;;;;9.10;6.97;;;6.50;99.90;;;;;;5094162;28;20073;-49
2022/12/28 04:38:19;;;;;;;11.48;8.30;;;6.40;99.90;;;;;;5094879;27;20036;-48
2022/12/28 04:40:45;;;;;;;12.00;8.48;;;6.50;99.90;;;;;;5096770;27;20043;-49
2022/12/28 04:43:11;;;;;;;10.90;8.77;;;6.70;99.90;;;;;;5096534;27;20083;-46
2022/12/28 04:45:36;;;;;;;13.05;9.20;;;6.60;99.90;;;;;;5096364;27;20154;-50
2022/12/28 04:48:02;;;;;;;12.32;9.45;;;6.70;99.90;;;;;;5096691;27;20032;-44
2022/12/28 04:50:29;;;;;;;13.07;8.73;;;6.50;99.90;;;;;;5095876;27;20047;-46
2022/12/28 04:52:55;;;;;;;12.15;8.48;;;6.70;99.90;;;;;;5095471;27;20111;-45
2022/12/28 04:55:21;;;;;;;14.82;11.35;;;6.70;99.90;;;;;;5094742;27;20035;-44
2022/12/28 04:57:46;;;;;;;14.70;9.80;;;6.60;99.90;;;;;;5094934;27;20035;-44
2022/12/28 05:00:13;;;;;;;14.90;11.15;;;6.70;99.90;;;;;;5094615;27;20054;-47
2022/12/28 05:02:39;;;;;;;12.48;10.73;;;6.80;99.90;;;;;;5095395;27;20047;-45
2022/12/28 05:05:06;;;;;;;13.50;11.65;;;6.70;99.90;;;;;;5096473;27;20047;-48
2022/12/28 05:07:32;;;;;;;15.63;12.52;;;6.70;99.90;;;;;;5095890;28;20103;-47
2022/12/28 05:09:57;;;;;;;16.73;11.30;;;6.90;99.90;;;;;;5096043;27;20280;-46
2022/12/28 05:12:24;;;;;;;15.82;13.35;;;6.80;99.90;;;;;;5095054;27;20031;-45
2022/12/28 05:14:50;;;;;;;17.80;13.25;;;6.80;99.90;;;;;;5094373;28;20066;-45
2022/12/28 05:17:16;;;;;;;17.05;14.05;;;6.90;99.90;;;;;;5095715;27;20523;-47
2022/12/28 05:19:41;;;;;;;18.35;13.80;;;6.80;99.90;;;;;;5096126;27;20040;-47
2022/12/28 05:22:10;;;;;;;17.45;13.85;;;7.00;99.90;;;;;;5095748;27;20044;-46
2022/12/28 05:24:40;;;;;;;18.17;14.77;;;7.00;99.90;;;;;;5094003;27;20062;-46
2022/12/28 05:27:06;;;;;;;18.88;15.38;;;6.90;99.90;;;;;;5096205;27;20651;-44
2022/12/28 05:29:31;;;;;;;17.42;14.43;;;7.00;99.90;;;;;;5095770;27;20077;-48
2022/12/28 05:31:57;;;;;;;16.00;13.93;;;7.00;99.90;;;;;;5094767;27;20446;-45
2022/12/28 05:34:23;;;;;;;20.27;15.00;;;7.00;99.90;;;;;;5094926;28;20044;-45
2022/12/28 05:36:48;;;;;;;18.95;15.13;;;7.10;99.90;;;;;;5094827;27;20299;-45
2022/12/28 05:39:14;;;;;;;17.42;15.13;;;7.00;99.90;;;;;;5096283;28;20047;-47
2022/12/28 05:41:40;;;;;;;21.38;16.85;;;7.10;99.90;;;;;;5096254;27;20518;-44
2022/12/28 05:44:05;;;;;;;23.75;16.00;;;7.20;99.90;;;;;;5096467;27;20101;-45
2022/12/28 05:46:33;;;;;;;18.52;14.85;;;7.30;99.90;;;;;;5096003;28;20122;-44
2022/12/28 05:48:59;;;;;;;18.42;16.42;;;7.20;99.90;;;;;;5096530;27;20586;-49
2022/12/28 05:51:30;;;;;;;20.92;15.63;;;7.20;99.90;;;;;;5095240;27;20047;-45
2022/12/28 05:53:58;;;;;;;17.90;15.90;;;7.30;99.90;;;;;;5097009;27;20047;-45
2022/12/28 05:56:26;;;;;;;19.52;15.75;;;7.30;99.90;;;;;;5094576;28;20036;-47
2022/12/28 05:58:54;;;;;;;17.85;15.00;;;7.40;99.90;;;;;;5095537;27;20074;-46
2022/12/28 06:01:22;;;;;;;18.25;14.38;;;7.40;99.90;;;;;;5094974;27;20039;-50
2022/12/28 06:03:52;;;;;;;17.85;14.63;;;7.40;99.90;;;;;;5095702;27;20050;-50
2022/12/28 06:06:19;;;;;;;15.85;14.15;;;8.40;99.90;;;;;;5095113;28;20450;-45
2022/12/28 06:08:46;;;;;;;19.05;14.63;;;7.50;99.90;;;;;;5094803;27;20399;-50
2022/12/28 06:11:18;;;;;;;14.82;12.50;;;7.50;99.90;;;;;;5093788;28;20036;-48
2022/12/28 06:13:44;;;;;;;16.58;13.40;;;7.50;99.90;;;;;;5094395;27;20036;-50
2022/12/28 06:16:25;;;;;;;15.80;13.15;;;7.40;99.90;;;;;;5094332;27;20132;-49
2022/12/28 06:18:51;;;;;;;14.68;11.45;;;7.60;99.90;;;;;;5095327;27;20035;-46
2022/12/28 06:21:28;;;;;;;15.65;11.30;;;7.50;99.90;;;;;;5093505;28;20039;-45
2022/12/28 06:23:58;;;;;;;13.75;11.07;;;7.60;99.90;;;;;;5095846;27;20092;-46
2022/12/28 06:26:26;;;;;;;14.98;11.27;;;7.40;99.90;;;;;;5091730;27;20859;-48
2022/12/28 06:28:52;;;;;;;13.65;11.05;;;7.80;99.90;;;;;;5093427;27;20396;-49
2022/12/28 06:31:26;;;;;;;13.38;11.35;;;7.60;99.90;;;;;;5093066;27;20043;-49
2022/12/28 06:33:54;;;;;;;13.30;11.32;;;7.60;99.90;;;;;;5092747;28;20124;-46
2022/12/28 06:36:29;;;;;;;13.02;10.90;;;7.60;99.90;;;;;;5092442;27;20067;-47
2022/12/28 06:38:57;;;;;;;14.73;11.05;;;7.70;99.90;;;;;;5094604;27;20111;-48
2022/12/28 06:41:23;;;;;;;15.85;10.82;;;9.10;99.90;;;;;;5093682;27;20044;-50
2022/12/28 06:43:49;;;;;;;14.10;11.50;;;7.60;99.90;;;;;;5092519;27;20039;-47
2022/12/28 06:46:17;;;;;;;14.40;11.05;;;7.70;99.90;;;;;;5092188;28;20054;-50
2022/12/28 06:48:43;;;;;;;14.00;11.48;;;7.70;99.90;;;;;;5093277;27;20035;-45
2022/12/28 06:51:15;;;;;;;13.20;10.82;;;8.20;99.90;;;;;;5089950;27;20050;-48
2022/12/28 06:53:41;;;;;;;15.68;11.32;;;7.90;99.90;;;;;;5093498;27;20036;-45
2022/12/28 06:56:14;;;;;;;12.63;11.32;;;7.90;99.90;;;;;;5093396;28;20055;-48
2022/12/28 06:58:40;;;;;;;14.73;12.68;;;8.00;99.90;;;;;;5094253;27;20519;-46
2022/12/28 07:01:07;;;;;;;13.23;11.52;;;7.90;99.90;;;;;;5092220;27;20125;-45
2022/12/28 07:03:33;;;;;;;17.17;11.52;;;9.20;99.90;;;;;;5092730;28;20449;-46
2022/12/28 07:06:00;;;;;;;16.67;11.95;;;7.80;99.90;;;;;;5093405;27;22297;-46
2022/12/28 07:08:27;;;;;;;15.55;12.30;;;7.90;99.90;;;;;;5094811;28;20043;-47
2022/12/28 07:10:52;;;;;;;17.58;13.70;;;7.70;99.90;;;;;;5094766;27;20112;-47
2022/12/28 07:13:18;;;;;;;17.90;12.80;;;8.10;99.90;;;;;;5094934;27;20043;-46
2022/12/28 07:15:43;;;;;;;16.60;13.02;;;7.90;99.90;;;;;;5094406;27;20039;-45
2022/12/28 07:18:09;;;;;;;18.27;13.18;;;8.90;99.90;;;;;;5094400;27;20048;-48
2022/12/28 07:20:35;;;;;;;17.58;13.20;;;7.90;99.90;;;;;;5094866;28;20091;-49
2022/12/28 07:23:00;;;;;;;20.95;14.18;;;7.90;99.90;;;;;;5093890;27;20123;-46
2022/12/28 07:25:27;;;;;;;19.08;14.23;;;7.80;99.90;;;;;;5093128;28;20044;-48
2022/12/28 07:27:52;;;;;;;18.95;12.85;;;8.00;99.90;;;;;;5095427;27;20054;-50
2022/12/28 07:30:18;;;;;;;19.98;13.45;;;9.40;99.90;;;;;;5093421;27;20404;-45
2022/12/28 07:32:44;;;;;;;19.80;13.13;;;8.10;99.90;;;;;;5093915;28;20041;-45
2022/12/28 07:35:10;;;;;;;17.20;12.93;;;8.60;99.90;;;;;;5092410;27;21877;-47
2022/12/28 07:37:35;;;;;;;21.95;14.15;;;9.10;99.90;;;;;;5094776;28;20048;-51
2022/12/28 07:40:01;;;;;;;20.00;13.13;;;8.00;99.90;;;;;;5093296;28;20063;-46
2022/12/28 07:42:30;;;;;;;22.13;12.52;;;8.00;99.90;;;;;;5092229;28;20125;-45
2022/12/28 07:44:56;;;;;;;26.42;13.07;;;8.00;99.90;;;;;;5092855;28;20412;-47
2022/12/28 07:47:22;;;;;;;18.33;12.48;;;8.10;99.90;;;;;;5092208;28;20035;-47
2022/12/28 07:49:47;;;;;;;20.88;13.65;;;9.90;99.90;;;;;;5093472;28;20039;-46
2022/12/28 07:52:13;;;;;;;17.50;12.50;;;8.00;99.90;;;;;;5092640;28;20122;-45
2022/12/28 07:54:39;;;;;;;15.60;12.23;;;8.10;99.90;;;;;;5093259;28;20040;-46
2022/12/28 07:57:04;;;;;;;17.33;12.07;;;8.00;99.90;;;;;;5093030;28;20063;-48
2022/12/28 07:59:30;;;;;;;16.40;11.85;;;8.70;99.90;;;;;;5090604;28;20074;-49
2022/12/28 08:01:56;;;;;;;16.42;12.55;;;8.00;99.90;;;;;;5091610;28;20067;-50
2022/12/28 08:04:22;;;;;;;17.02;11.70;;;8.10;99.90;;;;;;5092120;28;20418;-46
2022/12/28 08:06:47;;;;;;;18.00;13.00;;;8.10;99.90;;;;;;5091881;27;20323;-49
2022/12/28 08:09:14;;;;;;;16.50;11.88;;;8.30;99.90;;;;;;5090369;28;20066;-50
2022/12/28 08:11:42;;;;;;;15.80;12.68;;;8.10;99.90;;;;;;5093305;28;20100;-48
2022/12/28 08:14:09;;;;;;;17.85;13.10;;;8.10;99.90;;;;;;5096082;27;20063;-47
2022/12/28 08:16:40;;;;;;;16.90;13.55;;;8.20;99.90;;;;;;5097502;27;20047;-50
2022/12/28 08:19:07;;;;;;;17.30;11.75;;;8.40;99.90;;;;;;5097877;27;20063;-49
2022/12/28 08:21:41;;;;;;;16.98;13.38;;;8.30;99.90;;;;;;5095401;27;20047;-48
2022/12/28 08:24:11;;;;;;;14.52;12.80;;;8.30;99.90;;;;;;5098200;27;20082;-47
2022/12/28 08:26:39;;;;;;;17.27;13.02;;;8.10;99.90;;;;;;5096827;27;20516;-46
2022/12/28 08:29:11;;;;;;;15.15;12.95;;;8.20;99.90;;;;;;5097669;27;20054;-50
2022/12/28 08:31:39;;;;;;;16.10;12.02;;;8.20;99.90;;;;;;5096250;27;20040;-48
2022/12/28 08:34:07;;;;;;;16.25;10.88;;;8.30;99.90;;;;;;5096848;27;20035;-46
2022/12/28 08:36:33;;;;;;;17.52;11.43;;;8.20;99.90;;;;;;5096426;28;20134;-49
2022/12/28 08:39:00;;;;;;;12.73;10.88;;;8.40;99.90;;;;;;5096048;27;20055;-50
2022/12/28 08:41:27;;;;;;;13.40;10.73;;;8.30;99.90;;;;;;5096653;27;20051;-46
2022/12/28 08:43:54;;;;;;;13.10;9.82;;;8.20;99.90;;;;;;5095315;27;20420;-48
2022/12/28 08:46:29;;;;;;;12.65;10.23;;;8.80;99.90;;;;;;5096484;27;20035;-51
2022/12/28 08:48:57;;;;;;;11.70;8.93;;;8.20;99.90;;;;;;5096841;27;20109;-50
2022/12/28 08:51:30;;;;;;;16.05;11.43;;;8.20;99.90;;;;;;5096033;27;20731;-49
2022/12/28 08:53:56;;;;;;;10.02;8.52;;;8.30;99.90;;;;;;5095977;27;20484;-51
2022/12/28 08:56:24;;;;;;;9.73;7.85;;;8.50;99.90;;;;;;5096766;27;20035;-47
2022/12/28 08:58:50;;;;;;;8.25;6.50;;;8.40;99.90;;;;;;5096017;27;20202;-49
2022/12/28 09:01:21;;;;;;;9.15;7.13;;;8.30;99.90;;;;;;5093226;27;20126;-49
2022/12/28 09:03:50;;;;;;;9.63;7.03;;;8.30;99.90;;;;;;5095240;27;20047;-48
2022/12/28 09:06:20;;;;;;;9.77;6.55;;;8.50;99.90;;;;;;5094532;27;20124;-50
2022/12/28 09:08:50;;;;;;;10.70;6.55;;;8.40;99.90;;;;;;5095388;27;20104;-48
2022/12/28 09:11:17;;;;;;;6.15;5.13;;;8.80;99.90;;;;;;5096294;27;20392;-49
2022/12/28 09:13:43;;;;;;;7.90;5.47;;;8.40;99.90;;;;;;5095759;27;20050;-49
2022/12/28 09:16:14;;;;;;;6.85;5.55;;;8.30;99.90;;;;;;5094467;28;20040;-47
2022/12/28 09:18:41;;;;;;;7.27;5.37;;;8.40;99.90;;;;;;5095541;27;20039;-51
2022/12/28 09:21:10;;;;;;;7.35;6.18;;;8.40;99.90;;;;;;5096721;27;20285;-50
2022/12/28 09:23:36;;;;;;;10.00;7.40;;;9.40;99.90;;;;;;5094823;28;20047;-46
2022/12/28 09:26:06;;;;;;;9.70;7.82;;;9.00;99.90;;;;;;5094915;27;20447;-49
2022/12/28 09:28:32;;;;;;;10.82;8.18;;;8.30;99.90;;;;;;5093638;27;20602;-46
2022/12/28 09:31:04;;;;;;;11.57;8.48;;;8.70;99.90;;;;;;5094964;27;20038;-50
2022/12/28 09:34:12;;;;;;;9.25;7.75;;;9.20;99.90;;;;;;5094275;27;20594;-50
2022/12/28 09:36:20;;;;;;;10.40;7.93;;;8.50;99.90;;;;;;5092054;27;20043;-49
2022/12/28 09:38:46;;;;;;;10.02;7.97;;;9.60;99.90;;;;;;5094903;27;20075;-48
2022/12/28 09:41:29;;;;;;;9.32;7.45;;;8.50;99.90;;;;;;5095485;27;20067;-49
2022/12/28 09:44:36;;;;;;;12.98;7.68;;;8.40;99.90;;;;;;5094364;27;20047;-48
2022/12/28 09:47:43;;;;;;;8.85;7.57;;;8.40;99.90;;;;;;5093339;27;20054;-48
2022/12/28 09:50:15;;;;;;;9.65;7.10;;;8.50;99.90;;;;;;5096075;27;20088;-49
2022/12/28 09:52:47;;;;;;;9.43;6.78;;;8.40;99.90;;;;;;5095634;27;20040;-50
2022/12/28 09:55:15;;;;;;;9.02;5.90;;;8.30;99.90;;;;;;5095290;27;20147;-49
2022/12/28 09:57:46;;;;;;;8.73;6.07;;;8.20;99.90;;;;;;5095630;27;20038;-48
2022/12/28 10:00:19;;;;;;;7.18;5.88;;;8.50;99.90;;;;;;5094309;27;20067;-47
2022/12/28 10:02:56;;;;;;;9.23;6.32;;;8.30;99.90;;;;;;5095290;27;20052;-49
2022/12/28 10:05:23;;;;;;;8.57;6.57;;;8.40;99.90;;;;;;5096282;27;20134;-47
2022/12/28 10:07:50;;;;;;;8.13;6.45;;;9.50;99.90;;;;;;5095055;27;20299;-49
2022/12/28 10:10:17;;;;;;;8.27;6.55;;;8.30;99.90;;;;;;5095744;27;20440;-49
2022/12/28 10:12:44;;;;;;;7.78;5.97;;;8.10;99.90;;;;;;5094527;27;20059;-49
2022/12/28 10:15:12;;;;;;;8.65;6.25;;;6.70;99.90;;;;;;5093249;27;20090;-48
2022/12/28 10:17:39;;;;;;;10.85;6.53;;;8.20;99.90;;;;;;5094129;27;20584;-49
2022/12/28 10:20:06;;;;;;;8.80;6.78;;;8.30;99.90;;;;;;5094023;27;20507;-49
2022/12/28 10:22:41;;;;;;;10.27;7.22;;;8.40;99.90;;;;;;5093288;27;20734;-50
2022/12/28 10:25:19;;;;;;;9.70;7.97;;;9.20;99.90;;;;;;5094209;27;20043;-50
2022/12/28 10:27:45;;;;;;;14.00;10.45;;;8.30;99.90;;;;;;5094158;27;20040;-50
2022/12/28 10:30:16;;;;;;;16.40;10.93;;;8.30;99.90;;;;;;5093402;28;20400;-47
2022/12/28 10:32:51;;;;;;;13.98;11.75;;;8.30;99.90;;;;;;5094386;27;20076;-49
2022/12/28 10:35:41;;;;;;;15.63;11.70;;;8.40;99.90;;;;;;5092901;27;20055;-48
2022/12/28 10:38:27;;;;;;;14.55;11.00;;;8.40;99.90;;;;;;5094445;28;20051;-50
2022/12/28 10:41:04;;;;;;;13.45;10.32;;;8.40;99.90;;;;;;5093488;27;20139;-51
2022/12/28 10:43:34;;;;;;;13.07;10.90;;;8.40;99.90;;;;;;5093691;27;20050;-49
2022/12/28 10:46:01;;;;;;;10.75;9.57;;;9.30;99.90;;;;;;5094093;27;20039;-47
2022/12/28 10:48:32;;;;;;;22.17;11.52;;;8.70;99.90;;;;;;5092666;27;20061;-52
2022/12/28 10:51:10;;;;;;;11.77;9.98;;;8.50;99.90;;;;;;5093929;27;20224;-49
2022/12/28 10:53:44;;;;;;;11.63;9.05;;;10.70;99.90;;;;;;5093574;28;20120;-49
2022/12/28 10:56:13;;;;;;;11.27;9.38;;;8.60;99.90;;;;;;5092454;28;20043;-49
2022/12/28 10:58:40;;;;;;;10.45;8.55;;;8.50;99.90;;;;;;5093627;27;20051;-49
2022/12/28 11:01:15;;;;;;;9.63;7.85;;;8.70;99.90;;;;;;5093623;27;20040;-51
2022/12/28 11:03:43;;;;;;;10.00;7.93;;;8.70;99.90;;;;;;5093430;28;20104;-50
2022/12/28 11:06:19;;;;;;;9.30;6.97;;;8.70;99.90;;;;;;5093425;27;20124;-49
2022/12/28 11:09:15;;;;;;;9.25;6.75;;;8.70;99.90;;;;;;5093806;28;20047;-49
2022/12/28 11:11:43;;;;;;;8.98;6.53;;;8.70;99.90;;;;;;5093104;28;20679;-49
2022/12/28 11:14:31;;;;;;;9.82;6.88;;;8.80;99.90;;;;;;5094197;27;20172;-49
2022/12/28 11:16:56;;;;;;;9.25;7.03;;;8.80;99.90;;;;;;5093223;27;20044;-48
2022/12/28 11:19:24;;;;;;;8.82;6.88;;;8.90;99.90;;;;;;5092704;27;20043;-45
2022/12/28 11:21:50;;;;;;;8.82;7.10;;;9.20;99.90;;;;;;5095359;27;20042;-48
2022/12/28 11:24:18;;;;;;;8.40;5.95;;;8.70;99.90;;;;;;5094322;28;20059;-47
2022/12/28 11:26:48;;;;;;;8.38;6.07;;;8.80;99.90;;;;;;5094283;27;20112;-48
2022/12/28 11:29:16;;;;;;;8.18;6.10;;;8.60;99.90;;;;;;5092486;27;20503;-49
2022/12/28 11:32:15;;;;;;;7.40;5.00;;;8.80;99.90;;;;;;5091434;28;20468;-49
2022/12/28 11:34:41;;;;;;;8.35;5.70;;;8.70;99.90;;;;;;5093342;28;20077;-48
2022/12/28 11:37:13;;;;;;;6.57;5.00;;;8.80;99.90;;;;;;5093850;27;20039;-48
2022/12/28 11:39:43;;;;;;;7.82;5.90;;;8.60;99.90;;;;;;5093131;28;20078;-49
2022/12/28 11:42:10;;;;;;;8.52;5.60;;;8.70;99.90;;;;;;5094488;27;20042;-49
2022/12/28 11:44:38;;;;;;;7.28;4.65;;;8.90;99.90;;;;;;5094688;28;20063;-48
2022/12/28 11:47:31;;;;;;;6.72;4.57;;;8.90;99.90;;;;;;5094581;28;20051;-49
2022/12/28 11:50:38;;;;;;;6.13;4.82;;;8.80;99.90;;;;;;5093009;28;20380;-47
2022/12/28 11:53:32;;;;;;;8.30;4.63;;;8.80;99.90;;;;;;5093306;28;20049;-50
2022/12/28 11:56:09;;;;;;;7.05;4.45;;;8.80;99.90;;;;;;5093695;28;20048;-49
2022/12/28 11:58:41;;;;;;;7.93;4.63;;;8.80;99.90;;;;;;5092385;28;20043;-49
2022/12/28 12:01:09;;;;;;;6.55;4.55;;;8.80;99.90;;;;;;5091999;28;20519;-47
2022/12/28 12:04:28;;;;;;;7.28;5.00;;;8.70;99.90;;;;;;5092469;28;20760;-50
2022/12/28 12:06:55;;;;;;;8.20;5.70;;;8.90;99.90;;;;;;5048847;28;20208;-49
2022/12/28 12:09:22;;;;;;;10.35;5.70;;;6.90;99.90;;;;;;5088685;28;20105;-51
2022/12/28 12:11:55;;;;;;;8.18;5.55;;;8.80;99.90;;;;;;5091960;28;20530;-47
2022/12/28 12:14:25;;;;;;;7.28;5.65;;;8.90;99.90;;;;;;5092635;28;20519;-51
2022/12/28 12:17:10;;;;;;;7.10;5.75;;;8.80;99.90;;;;;;5091247;28;20088;-48
2022/12/28 12:19:39;;;;;;;9.98;6.70;;;8.70;99.90;;;;;;5091356;28;20112;-47
2022/12/28 12:22:08;;;;;;;8.50;6.07;;;8.70;99.90;;;;;;5092898;28;23608;-45
2022/12/28 12:25:15;;;;;;;7.28;5.90;;;8.60;99.90;;;;;;5092703;28;20163;-47
2022/12/28 12:27:52;;;;;;;8.27;5.90;;;8.70;99.90;;;;;;5092198;28;20135;-47
2022/12/28 12:30:20;;;;;;;9.25;6.28;;;8.70;99.90;;;;;;5091771;28;20197;-47
2022/12/28 12:32:57;;;;;;;7.65;5.60;;;8.70;99.90;;;;;;5093284;28;20173;-47
2022/12/28 12:35:40;;;;;;;9.43;6.50;;;8.80;99.90;;;;;;5092636;28;20058;-47
2022/12/28 12:38:11;;;;;;;24.98;6.93;;;8.80;99.90;;;;;;5093114;28;20096;-47
2022/12/28 12:40:43;;;;;;;8.75;5.82;;;8.60;99.90;;;;;;5093934;28;20048;-47
2022/12/28 12:43:19;;;;;;;10.85;5.95;;;8.90;99.90;;;;;;5093944;28;20082;-47
2022/12/28 12:46:11;;;;;;;6.30;4.35;;;8.70;99.90;;;;;;5093504;28;20051;-48
2022/12/28 12:48:58;;;;;;;;;;;8.80;99.90;;;;;;5093659;28;20412;-48
2022/12/28 12:51:38;;;;;;;9.05;5.47;;;8.90;99.90;;;;;;5094022;28;19993;-46
2022/12/28 12:54:31;;;;;;;7.57;5.50;;;8.70;99.90;;;;;;5092958;28;20047;-46
2022/12/28 12:57:07;;;;;;;6.35;4.28;;;8.70;99.90;;;;;;5094032;28;20531;-46
2022/12/28 12:59:54;;;;;;;5.75;4.25;;;10.00;99.90;;;;;;5095146;28;20046;-48
2022/12/28 13:02:42;;;;;;;6.22;4.20;;;8.80;99.90;;;;;;5098139;27;20036;-47
2022/12/28 13:05:16;;;;;;;8.13;4.43;;;8.70;99.90;;;;;;5097618;27;20039;-51
2022/12/28 13:07:42;;;;;;;7.40;3.63;;;8.60;99.90;;;;;;5098030;27;20055;-47
2022/12/28 13:10:19;;;;;;;6.30;3.88;;;8.70;99.90;;;;;;5099022;27;20052;-48
2022/12/28 13:12:45;;;;;;;4.75;3.67;;;8.80;99.90;;;;;;5097430;27;20197;-48
2022/12/28 13:15:17;;;;;;;7.32;3.67;;;9.20;99.90;;;;;;5097984;27;20126;-47
2022/12/28 13:18:18;;;;;;;;;;;8.80;99.90;;;;;;5095312;28;20600;-48
2022/12/28 13:21:01;;;;;;;6.68;4.80;;;8.50;99.90;;;;;;5016881;28;19925;-46
2022/12/28 13:23:29;;;;;;;6.45;3.70;;;8.70;99.90;;;;;;5087914;27;20201;-46
2022/12/28 13:26:00;;;;;;;5.43;3.47;;;8.60;99.90;;;;;;5096333;27;20054;-47
2022/12/28 13:28:31;;;;;;;5.22;3.35;;;9.30;99.90;;;;;;5096143;27;20424;-48
2022/12/28 13:31:04;;;;;;;6.70;3.60;;;8.80;99.90;;;;;;5094538;27;20324;-48
2022/12/28 13:33:29;;;;;;;5.47;3.10;;;8.60;99.90;;;;;;5095302;28;20036;-48
2022/12/28 13:36:10;;;;;;;6.40;3.08;;;8.80;99.90;;;;;;5094647;27;20082;-47
2022/12/28 13:38:36;;;;;;;5.00;3.28;;;8.70;99.90;;;;;;5094976;27;20055;-44
2022/12/28 13:41:02;;;;;;;3.90;2.20;;;8.80;99.90;;;;;;5092640;27;20036;-50
2022/12/28 13:43:59;;;;;;;4.90;2.40;;;8.70;99.90;;;;;;5094573;27;20044;-46